Time,TemperatureF,DewpointF,PressureIn,WindDirection,WindDirectionDegrees,WindSpeedMPH,WindSpeedGustMPH,Humidity,HourlyPrecipIn,Conditions,Clouds,dailyrainin,SoftwareType,DateUTC
2013-02-24 00:00:00,19.9,16.7,29.95,WSW,248,0.0,2.0,87,0.00,,SKC,0.00,VWS V14.01,2013-02-24 06:00:00,
2013-02-24 00:14:00,19.0,16.0,29.95,WSW,257,0.0,-999.0,87,-99.99,,,0.00,weatherlink.com 1.10,2013-02-24 06:14:00,
2013-02-24 00:29:00,18.2,15.0,29.95,WSW,257,0.0,-999.0,88,-99.99,,,0.00,weatherlink.com 1.10,2013-02-24 06:29:00,
2013-02-24 00:30:00,18.2,15.2,29.95,WSW,248,0.0,0.0,88,0.00,,SKC,0.00,VWS V14.01,2013-02-24 06:30:00,
2013-02-24 00:44:00,17.3,15.0,29.95,WSW,257,0.0,-999.0,89,-99.99,,,0.00,weatherlink.com 1.10,2013-02-24 06:44:00,
2013-02-24 00:59:00,16.6,14.0,29.96,WSW,257,0.0,-999.0,90,-99.99,,,0.00,weatherlink.com 1.10,2013-02-24 06:59:00,
2013-02-24 01:00:00,16.6,14.2,29.96,WSW,248,0.0,0.0,90,0.00,,SKC,0.00,VWS V14.01,2013-02-24 07:00:00,
2013-02-24 01:14:00,16.1,14.0,29.96,WSW,257,0.0,-999.0,90,-99.99,,,0.00,weatherlink.com 1.10,2013-02-24 07:14:00,
2013-02-24 01:29:00,15.1,13.0,29.97,WSW,257,0.0,-999.0,89,-99.99,,,0.00,weatherlink.com 1.10,2013-02-24 07:29:00,
2013-02-24 01:30:00,15.1,12.4,29.97,WSW,248,0.0,0.0,89,0.00,,SKC,0.00,VWS V14.01,2013-02-24 07:30:00,
2013-02-24 01:45:00,14.2,12.0,29.97,WSW,257,0.0,-999.0,89,-99.99,,,0.00,weatherlink.com 1.10,2013-02-24 07:45:00,
2013-02-24 02:00:00,13.7,12.0,29.97,WSW,257,0.0,-999.0,91,-99.99,,,0.00,weatherlink.com 1.10,2013-02-24 08:00:00,
2013-02-24 02:15:00,14.0,12.0,29.98,WSW,257,0.0,-999.0,91,-99.99,,,0.00,weatherlink.com 1.10,2013-02-24 08:15:00,
2013-02-24 02:30:00,13.1,11.0,29.98,WSW,257,0.0,-999.0,89,-99.99,,,0.00,weatherlink.com 1.10,2013-02-24 08:30:00,
2013-02-24 02:45:00,12.4,10.0,29.98,WSW,257,0.0,-999.0,89,-99.99,,,0.00,weatherlink.com 1.10,2013-02-24 08:45:00,
2013-02-24 03:00:00,12.0,10.0,29.98,WSW,257,0.0,-999.0,90,-99.99,,,0.00,weatherlink.com 1.10,2013-02-24 09:00:00,
2013-02-24 03:15:00,11.3,9.0,29.99,WSW,257,0.0,-999.0,89,-99.99,,,0.00,weatherlink.com 1.10,2013-02-24 09:15:00,
2013-02-24 03:30:00,11.4,9.0,29.99,WSW,257,0.0,-999.0,91,-99.99,,,0.00,weatherlink.com 1.10,2013-02-24 09:30:00,
2013-02-24 03:45:00,11.7,10.0,29.99,WSW,257,0.0,-999.0,91,-99.99,,,0.00,weatherlink.com 1.10,2013-02-24 09:45:00,
2013-02-24 04:00:00,11.2,9.0,29.99,WSW,257,0.0,-999.0,90,-99.99,,,0.00,weatherlink.com 1.10,2013-02-24 10:00:00,
2013-02-24 04:15:00,10.6,8.0,29.99,WSW,257,0.0,-999.0,90,-99.99,,,0.00,weatherlink.com 1.10,2013-02-24 10:15:00,
2013-02-24 04:30:00,10.1,8.0,29.99,WSW,257,0.0,-999.0,89,-99.99,,,0.00,weatherlink.com 1.10,2013-02-24 10:30:00,
2013-02-24 04:45:00,9.4,7.0,30.00,WSW,257,0.0,-999.0,89,-99.99,,,0.00,weatherlink.com 1.10,2013-02-24 10:45:00,
2013-02-24 05:00:00,8.6,6.0,30.00,WSW,257,0.0,-999.0,88,-99.99,,,0.00,weatherlink.com 1.10,2013-02-24 11:00:00,
2013-02-24 05:15:00,8.1,5.0,30.00,WSW,257,0.0,-999.0,88,-99.99,,,0.00,weatherlink.com 1.10,2013-02-24 11:15:00,
2013-02-24 05:30:00,7.8,5.0,30.02,WSW,257,0.0,-999.0,89,-99.99,,,0.00,weatherlink.com 1.10,2013-02-24 11:30:00,
2013-02-24 05:45:00,7.2,4.0,30.02,WSW,257,0.0,-999.0,88,-99.99,,,0.00,weatherlink.com 1.10,2013-02-24 11:45:00,
2013-02-24 06:00:00,6.9,4.0,30.02,WSW,257,0.0,-999.0,89,-99.99,,,0.00,weatherlink.com 1.10,2013-02-24 12:00:00,
2013-02-24 06:15:00,6.9,4.0,30.02,WSW,257,0.0,-999.0,89,-99.99,,,0.00,weatherlink.com 1.10,2013-02-24 12:15:00,
2013-02-24 06:30:00,6.2,3.0,30.03,WSW,257,0.0,-999.0,87,-99.99,,,0.00,weatherlink.com 1.10,2013-02-24 12:30:00,
2013-02-24 06:45:00,5.7,3.0,30.03,WSW,257,0.0,-999.0,88,-99.99,,,0.00,weatherlink.com 1.10,2013-02-24 12:45:00,
2013-02-24 07:00:00,5.3,3.0,30.03,WSW,257,0.0,-999.0,88,-99.99,,,0.00,weatherlink.com 1.10,2013-02-24 13:00:00,
2013-02-24 07:15:00,5.0,2.0,30.04,WSW,257,0.0,-999.0,88,-99.99,,,0.00,weatherlink.com 1.10,2013-02-24 13:15:00,
2013-02-24 07:30:00,5.5,3.0,30.04,WSW,257,0.0,-999.0,89,-99.99,,,0.00,weatherlink.com 1.10,2013-02-24 13:30:00,
2013-02-24 07:45:00,6.0,3.0,30.05,WSW,257,0.0,-999.0,87,-99.99,,,0.00,weatherlink.com 1.10,2013-02-24 13:45:00,
2013-02-24 08:00:00,8.1,6.0,30.05,WSW,257,0.0,-999.0,92,-99.99,,,0.00,weatherlink.com 1.10,2013-02-24 14:00:00,
2013-02-24 08:15:00,11.2,10.0,30.05,WSW,257,0.0,-999.0,93,-99.99,,,0.00,weatherlink.com 1.10,2013-02-24 14:15:00,
2013-02-24 08:30:00,13.4,11.0,30.06,WSW,257,0.0,-999.0,91,-99.99,,,0.00,weatherlink.com 1.10,2013-02-24 14:30:00,
2013-02-24 08:45:00,15.3,12.0,30.07,WSW,257,0.0,-999.0,87,-99.99,,,0.00,weatherlink.com 1.10,2013-02-24 14:45:00,
2013-02-24 09:00:00,16.7,13.0,30.07,WSW,257,0.0,-999.0,85,-99.99,,,0.00,weatherlink.com 1.10,2013-02-24 15:00:00,
2013-02-24 09:15:00,16.9,13.0,30.07,WSW,257,0.0,-999.0,86,-99.99,,,0.00,weatherlink.com 1.10,2013-02-24 15:15:00,
2013-02-24 09:30:00,18.4,15.0,30.07,WSW,257,0.0,-999.0,87,-99.99,,,0.00,weatherlink.com 1.10,2013-02-24 15:30:00,
2013-02-24 09:46:00,19.7,16.0,30.07,WSW,257,0.0,-999.0,85,-99.99,,,0.00,weatherlink.com 1.10,2013-02-24 15:46:00,
2013-02-24 10:00:00,21.2,17.1,30.08,WSW,248,0.0,2.0,84,0.00,,SKC,0.00,VWS V14.01,2013-02-24 16:00:00,
2013-02-24 10:01:00,21.5,17.0,30.08,WSW,257,0.0,-999.0,84,-99.99,,,0.00,weatherlink.com 1.10,2013-02-24 16:01:00,
2013-02-24 10:16:00,23.1,18.0,30.08,WSW,257,0.0,-999.0,81,-99.99,,,0.00,weatherlink.com 1.10,2013-02-24 16:16:00,
2013-02-24 10:30:00,24.8,18.9,30.08,WSW,248,0.0,2.0,78,0.00,,SKC,0.00,VWS V14.01,2013-02-24 16:30:00,
2013-02-24 10:31:00,24.9,19.0,30.09,SE,127,0.0,-999.0,78,-99.99,,,0.00,weatherlink.com 1.10,2013-02-24 16:31:00,
2013-02-24 10:46:00,25.7,20.0,30.09,SW,219,0.0,-999.0,78,-99.99,,,0.00,weatherlink.com 1.10,2013-02-24 16:46:00,
2013-02-24 11:00:00,27.1,20.5,30.09,SE,135,0.0,4.0,76,0.00,,SKC,0.00,VWS V14.01,2013-02-24 17:00:00,
2013-02-24 11:01:00,27.4,20.0,30.09,SW,236,0.0,-999.0,75,-99.99,,,0.00,weatherlink.com 1.10,2013-02-24 17:01:00,
2013-02-24 11:16:00,28.7,21.0,30.09,SSE,153,0.0,-999.0,74,-99.99,,,0.00,weatherlink.com 1.10,2013-02-24 17:16:00,
2013-02-24 11:30:00,28.8,21.2,30.09,WSW,248,0.0,5.0,73,0.00,,SKC,0.00,VWS V14.01,2013-02-24 17:30:00,
2013-02-24 11:31:00,28.8,21.0,30.09,WSW,258,0.0,-999.0,73,-99.99,,,0.00,weatherlink.com 1.10,2013-02-24 17:31:00,
2013-02-24 11:46:00,29.1,21.0,30.09,WSW,250,0.0,-999.0,72,-99.99,,,0.00,weatherlink.com 1.10,2013-02-24 17:46:00,
2013-02-24 12:00:00,30.6,22.7,30.09,WSW,248,0.0,3.0,72,0.00,,SKC,0.00,VWS V14.01,2013-02-24 18:00:00,
2013-02-24 12:01:00,30.9,23.0,30.09,SSE,155,0.0,-999.0,71,-99.99,,,0.00,weatherlink.com 1.10,2013-02-24 18:01:00,
2013-02-24 12:16:00,31.4,22.0,30.09,WSW,244,0.0,-999.0,69,-99.99,,,0.00,weatherlink.com 1.10,2013-02-24 18:16:00,
2013-02-24 12:30:00,31.6,22.3,30.09,WSW,248,1.0,5.0,68,0.00,,SKC,0.00,VWS V14.01,2013-02-24 18:30:00,
2013-02-24 12:31:00,31.8,22.0,30.09,SSE,148,0.0,-999.0,68,-99.99,,,0.00,weatherlink.com 1.10,2013-02-24 18:31:00,
2013-02-24 12:46:00,32.7,23.0,30.09,East,97,0.0,-999.0,67,-99.99,,,0.00,weatherlink.com 1.10,2013-02-24 18:46:00,
2013-02-24 13:00:00,33.1,22.6,30.09,ESE,112,1.0,7.0,65,0.00,,SKC,0.00,VWS V14.01,2013-02-24 19:00:00,
2013-02-24 13:01:00,32.9,22.0,30.09,ESE,120,0.0,-999.0,65,-99.99,,,0.00,weatherlink.com 1.10,2013-02-24 19:01:00,
2013-02-24 13:16:00,32.5,23.0,30.09,West,259,0.0,-999.0,67,-99.99,,,0.00,weatherlink.com 1.10,2013-02-24 19:16:00,
2013-02-24 13:30:00,32.4,22.3,30.09,ESE,112,1.0,6.0,66,0.00,,SKC,0.00,VWS V14.01,2013-02-24 19:30:00,
2013-02-24 13:31:00,32.4,23.0,30.09,ESE,123,0.0,-999.0,67,-99.99,,,0.00,weatherlink.com 1.10,2013-02-24 19:31:00,
2013-02-24 13:46:00,33.0,23.0,30.09,ENE,78,0.0,-999.0,66,-99.99,,,0.00,weatherlink.com 1.10,2013-02-24 19:46:00,
2013-02-24 14:00:00,33.5,23.0,30.08,ESE,112,0.0,5.0,65,0.00,,SKC,0.00,VWS V14.01,2013-02-24 20:00:00,
2013-02-24 14:01:00,33.5,22.0,30.09,SSW,198,0.0,-999.0,64,-99.99,,,0.00,weatherlink.com 1.10,2013-02-24 20:01:00,
2013-02-24 14:16:00,34.2,23.0,30.08,SSW,192,0.0,-999.0,64,-99.99,,,0.00,weatherlink.com 1.10,2013-02-24 20:16:00,
2013-02-24 14:30:00,34.8,23.1,30.08,West,270,0.0,4.0,62,0.00,,SKC,0.00,VWS V14.01,2013-02-24 20:30:00,
2013-02-24 14:31:00,34.9,23.0,30.08,SW,233,4.0,-999.0,61,-99.99,,,0.00,weatherlink.com 1.10,2013-02-24 20:31:00,
2013-02-24 14:46:00,35.6,23.0,30.07,SSE,153,0.0,-999.0,60,-99.99,,,0.00,weatherlink.com 1.10,2013-02-24 20:46:00,
2013-02-24 15:00:00,35.4,22.9,30.07,SE,135,0.0,5.0,60,0.00,,SKC,0.00,VWS V14.01,2013-02-24 21:00:00,
2013-02-24 15:01:00,35.2,22.0,30.07,SE,127,1.0,-999.0,60,-99.99,,,0.00,weatherlink.com 1.10,2013-02-24 21:01:00,
2013-02-24 15:16:00,35.6,23.0,30.07,SSE,161,0.0,-999.0,60,-99.99,,,0.00,weatherlink.com 1.10,2013-02-24 21:16:00,
2013-02-24 15:30:00,35.6,22.7,30.07,SSE,158,0.0,4.0,59,0.00,,SKC,0.00,VWS V14.01,2013-02-24 21:30:00,
2013-02-24 15:34:00,35.5,22.0,30.06,SSW,208,0.0,-999.0,59,-99.99,,,0.00,weatherlink.com 1.10,2013-02-24 21:34:00,
2013-02-24 15:46:00,34.7,22.0,30.07,SW,216,0.0,-999.0,61,-99.99,,,0.00,weatherlink.com 1.10,2013-02-24 21:46:00,
2013-02-24 16:00:00,35.1,22.6,30.07,East,90,0.0,4.0,60,0.00,,SKC,0.00,VWS V14.01,2013-02-24 22:00:00,
2013-02-24 16:01:00,35.1,22.0,30.07,SW,216,0.0,-999.0,59,-99.99,,,0.00,weatherlink.com 1.10,2013-02-24 22:01:00,
2013-02-24 16:16:00,34.6,22.0,30.07,ESE,108,0.0,-999.0,60,-99.99,,,0.00,weatherlink.com 1.10,2013-02-24 22:16:00,
2013-02-24 16:30:00,33.8,22.2,30.06,ESE,112,0.0,4.0,62,0.00,,SKC,0.00,VWS V14.01,2013-02-24 22:30:00,
2013-02-24 16:31:00,33.7,22.0,30.06,ESE,108,0.0,-999.0,62,-99.99,,,0.00,weatherlink.com 1.10,2013-02-24 22:31:00,
2013-02-24 16:46:00,33.5,22.0,30.06,ESE,108,0.0,-999.0,63,-99.99,,,0.00,weatherlink.com 1.10,2013-02-24 22:46:00,
2013-02-24 17:00:00,33.3,22.1,30.07,ESE,112,0.0,1.0,63,0.00,,SKC,0.00,VWS V14.01,2013-02-24 23:00:00,
2013-02-24 17:01:00,33.2,22.0,30.06,ESE,108,0.0,-999.0,63,-99.99,,,0.00,weatherlink.com 1.10,2013-02-24 23:01:00,
2013-02-24 17:16:00,32.6,22.0,30.06,ESE,108,0.0,-999.0,65,-99.99,,,0.00,weatherlink.com 1.10,2013-02-24 23:16:00,
2013-02-24 17:30:00,31.8,21.4,30.06,ESE,112,0.0,0.0,65,0.00,,SKC,0.00,VWS V14.01,2013-02-24 23:30:00,
2013-02-24 17:31:00,31.7,21.0,30.06,ESE,108,0.0,-999.0,65,-99.99,,,0.00,weatherlink.com 1.10,2013-02-24 23:31:00,
2013-02-24 17:46:00,30.3,21.0,30.06,ESE,108,0.0,-999.0,69,-99.99,,,0.00,weatherlink.com 1.10,2013-02-24 23:46:00,
2013-02-24 18:00:00,29.4,20.8,30.06,ESE,112,0.0,0.0,70,0.00,,SKC,0.00,VWS V14.01,2013-02-25 00:00:00,
2013-02-24 18:01:00,29.4,21.0,30.06,ESE,108,0.0,-999.0,71,-99.99,,,0.00,weatherlink.com 1.10,2013-02-25 00:01:00,
2013-02-24 18:16:00,28.5,21.0,30.07,ESE,108,0.0,-999.0,72,-99.99,,,0.00,weatherlink.com 1.10,2013-02-25 00:16:00,
2013-02-24 18:30:00,27.8,20.6,30.07,ESE,112,0.0,0.0,74,0.00,,SKC,0.00,VWS V14.01,2013-02-25 00:30:00,
2013-02-24 18:31:00,27.6,20.0,30.07,ESE,108,0.0,-999.0,74,-99.99,,,0.00,weatherlink.com 1.10,2013-02-25 00:31:00,
2013-02-24 18:46:00,26.6,20.0,30.08,ESE,108,0.0,-999.0,77,-99.99,,,0.00,weatherlink.com 1.10,2013-02-25 00:46:00,
2013-02-24 19:00:00,25.8,19.6,30.08,ESE,112,0.0,0.0,77,0.00,,SKC,0.00,VWS V14.01,2013-02-25 01:00:00,
2013-02-24 19:01:00,25.6,19.0,30.08,ESE,108,0.0,-999.0,77,-99.99,,,0.00,weatherlink.com 1.10,2013-02-25 01:01:00,
2013-02-24 19:16:00,24.7,20.0,30.09,ESE,108,0.0,-999.0,82,-99.99,,,0.00,weatherlink.com 1.10,2013-02-25 01:16:00,
2013-02-24 19:30:00,24.2,19.5,30.09,ESE,112,0.0,0.0,82,0.00,,SKC,0.00,VWS V14.01,2013-02-25 01:30:00,
2013-02-24 19:31:00,24.1,19.0,30.09,ESE,108,0.0,-999.0,82,-99.99,,,0.00,weatherlink.com 1.10,2013-02-25 01:31:00,
2013-02-24 19:47:00,23.1,19.0,30.09,ESE,108,0.0,-999.0,84,-99.99,,,0.00,weatherlink.com 1.10,2013-02-25 01:47:00,
2013-02-24 20:00:00,22.5,18.7,30.08,ESE,112,0.0,0.0,85,0.00,,SKC,0.00,VWS V14.01,2013-02-25 02:00:00,
2013-02-24 20:02:00,22.4,19.0,30.09,ESE,108,0.0,-999.0,85,-99.99,,,0.00,weatherlink.com 1.10,2013-02-25 02:02:00,
2013-02-24 20:17:00,21.5,18.0,30.09,ESE,108,0.0,-999.0,85,-99.99,,,0.00,weatherlink.com 1.10,2013-02-25 02:17:00,
2013-02-24 20:30:00,20.8,17.3,30.09,ESE,112,0.0,0.0,86,0.00,,SKC,0.00,VWS V14.01,2013-02-25 02:30:00,
2013-02-24 20:32:00,20.7,17.0,30.09,ESE,108,0.0,-999.0,86,-99.99,,,0.00,weatherlink.com 1.10,2013-02-25 02:32:00,
2013-02-24 20:47:00,20.1,17.0,30.09,ESE,108,0.0,-999.0,88,-99.99,,,0.00,weatherlink.com 1.10,2013-02-25 02:47:00,
2013-02-24 21:00:00,19.8,17.4,30.09,ESE,112,0.0,0.0,90,0.00,,SKC,0.00,VWS V14.01,2013-02-25 03:00:00,
2013-02-24 21:02:00,19.7,17.0,30.09,ESE,108,0.0,-999.0,89,-99.99,,,0.00,weatherlink.com 1.10,2013-02-25 03:02:00,
2013-02-24 21:17:00,19.2,17.0,30.09,ESE,108,0.0,-999.0,89,-99.99,,,0.00,weatherlink.com 1.10,2013-02-25 03:17:00,
2013-02-24 21:30:00,18.6,15.9,30.09,ESE,112,0.0,1.0,89,0.00,,SKC,0.00,VWS V14.01,2013-02-25 03:30:00,
2013-02-24 21:32:00,18.4,16.0,30.09,ESE,108,0.0,-999.0,89,-99.99,,,0.00,weatherlink.com 1.10,2013-02-25 03:32:00,
2013-02-24 21:49:00,17.7,15.0,30.10,ESE,108,0.0,-999.0,89,-99.99,,,0.00,weatherlink.com 1.10,2013-02-25 03:49:00,
2013-02-24 22:00:00,17.1,14.4,30.10,ESE,112,0.0,0.0,89,0.00,,SKC,0.00,VWS V14.01,2013-02-25 04:00:00,
2013-02-24 22:02:00,17.0,14.0,30.10,ESE,108,0.0,-999.0,89,-99.99,,,0.00,weatherlink.com 1.10,2013-02-25 04:02:00,
2013-02-24 22:17:00,17.0,15.0,30.10,ESE,108,0.0,-999.0,91,-99.99,,,0.00,weatherlink.com 1.10,2013-02-25 04:17:00,
2013-02-24 22:30:00,16.5,14.1,30.10,ESE,112,0.0,0.0,90,0.00,,SKC,0.00,VWS V14.01,2013-02-25 04:30:00,
2013-02-24 22:32:00,16.4,14.0,30.10,ESE,108,0.0,-999.0,90,-99.99,,,0.00,weatherlink.com 1.10,2013-02-25 04:32:00,
2013-02-24 22:47:00,15.7,13.0,30.10,ESE,108,0.0,-999.0,90,-99.99,,,0.00,weatherlink.com 1.10,2013-02-25 04:47:00,
2013-02-24 23:00:00,15.2,12.8,30.11,ESE,112,0.0,0.0,90,0.00,,SKC,0.00,VWS V14.01,2013-02-25 05:00:00,
2013-02-24 23:02:00,15.1,13.0,30.11,ESE,108,0.0,-999.0,90,-99.99,,,0.00,weatherlink.com 1.10,2013-02-25 05:02:00,
2013-02-24 23:17:00,14.6,12.0,30.11,ESE,108,0.0,-999.0,90,-99.99,,,0.00,weatherlink.com 1.10,2013-02-25 05:17:00,
2013-02-24 23:30:00,14.1,11.7,30.11,ESE,112,0.0,0.0,90,0.00,,SKC,0.00,VWS V14.01,2013-02-25 05:30:00,
2013-02-24 23:32:00,14.0,12.0,30.11,ESE,108,0.0,-999.0,90,-99.99,,,0.00,weatherlink.com 1.10,2013-02-25 05:32:00,
2013-02-24 23:47:00,13.6,11.0,30.11,ESE,108,0.0,-999.0,90,-99.99,,,0.00,weatherlink.com 1.10,2013-02-25 05:47:00,